Time;durP1;ratioP1;P1;durP2;ratioP2;P2;SDS_P1;SDS_P2;PMS_P1;PMS_P2;Temp;Humidity;BMP_temperature;BMP_pressure;BME280_temperature;BME280_humidity;BME280_pressure;Samples;Min_cycle;Max_cycle;Signal;HPM_P1;HPM_P2
2023/07/17 00:01:15;;;;;;;;;34.00;31.25;;;;;19.22;76.61;101682.72;5115055;27;45483;-72
2023/07/17 00:03:41;;;;;;;;;49.50;42.75;;;;;19.11;76.23;101674.53;5109417;27;45338;-72
2023/07/17 00:06:07;;;;;;;;;47.50;41.25;;;;;19.23;76.56;101684.44;5112931;27;46162;-72
2023/07/17 00:08:32;;;;;;;;;56.75;47.50;;;;;19.20;78.07;101678.44;5103062;27;45207;-72
2023/07/17 00:10:58;;;;;;;;;48.00;41.75;;;;;19.20;77.22;101686.47;5102766;27;45369;-72
2023/07/17 00:13:24;;;;;;;;;50.00;42.75;;;;;19.08;76.87;101663.16;5099386;27;45866;-72
2023/07/17 00:15:49;;;;;;;;;54.25;45.25;;;;;19.15;78.27;101675.19;5110176;27;45535;-72
2023/07/17 00:18:15;;;;;;;;;46.00;40.25;;;;;19.12;77.92;101670.03;5113111;27;45223;-72
2023/07/17 00:20:40;;;;;;;;;54.50;46.00;;;;;19.10;78.51;101672.84;5116882;27;45468;-72
2023/07/17 00:23:06;;;;;;;;;54.25;45.75;;;;;19.11;78.33;101682.59;5087153;27;45341;-72
2023/07/17 00:25:32;;;;;;;;;43.00;38.00;;;;;19.02;79.50;101671.63;5104488;27;46172;-72
2023/07/17 00:27:57;;;;;;;;;53.25;44.75;;;;;19.00;79.66;101673.56;5109182;27;45359;-72
2023/07/17 00:30:22;;;;;;;;;45.00;39.00;;;;;18.97;78.86;101677.31;5116314;27;45236;-72
2023/07/17 00:32:48;;;;;;;;;40.75;36.75;;;;;18.94;79.42;101671.31;5117631;27;45428;-72
2023/07/17 00:35:13;;;;;;;;;43.75;37.75;;;;;18.94;80.37;101677.53;5106410;27;45328;-72
2023/07/17 00:37:39;;;;;;;;;51.75;43.50;;;;;18.94;80.00;101679.34;5097709;27;45347;-71
2023/07/17 00:40:07;;;;;;;;;50.67;43.00;;;;;18.89;78.48;101684.16;5110699;27;45721;-72
2023/07/17 00:42:32;;;;;;;;;54.00;45.00;;;;;18.69;78.83;101648.84;5110459;27;45425;-71
2023/07/17 00:44:58;;;;;;;;;43.75;38.00;;;;;18.89;78.35;101685.03;5112880;27;45351;-71
2023/07/17 00:47:24;;;;;;;;;39.25;36.25;;;;;18.86;79.14;101679.00;5120022;27;45302;-72
2023/07/17 00:49:49;;;;;;;;;46.25;38.25;;;;;18.86;78.92;101687.03;5115909;27;45339;-72
2023/07/17 00:52:16;;;;;;;;;51.00;42.75;;;;;18.84;77.92;101695.22;5112903;27;45378;-72
2023/07/17 00:54:42;;;;;;;;;46.00;39.75;;;;;18.79;79.13;101686.59;5113550;27;46491;-72
2023/07/17 00:57:11;;;;;;;;;45.00;38.50;;;;;18.80;78.42;101691.00;5114699;27;45426;-72
2023/07/17 00:59:37;;;;;;;;;55.50;46.50;;;;;18.80;79.94;101693.69;5108498;27;45413;-72
2023/07/17 01:02:03;;;;;;;;;54.00;44.75;;;;;18.67;79.19;101684.75;5113223;27;45417;-72
2023/07/17 01:04:28;;;;;;;;;47.25;40.50;;;;;18.75;78.66;101695.81;5090738;27;46304;-72
2023/07/17 01:06:54;;;;;;;;;50.75;43.25;;;;;18.75;78.74;101695.81;5109156;27;45308;-72
2023/07/17 01:09:20;;;;;;;;;44.75;39.00;;;;;18.71;79.21;101705.03;5115185;27;45662;-72
2023/07/17 01:11:45;;;;;;;;;51.75;44.00;;;;;18.70;78.15;101700.63;5113023;27;45421;-72
2023/07/17 01:14:18;;;;;;;;;51.25;43.75;;;;;18.68;77.98;101711.44;5115404;27;45984;-72
2023/07/17 01:16:45;;;;;;;;;50.25;42.75;;;;;18.68;77.87;101706.06;5114122;27;45425;-72
2023/07/17 01:19:11;;;;;;;;;49.67;42.67;;;;;18.67;79.52;101707.06;5104753;27;45329;-72
2023/07/17 01:21:44;;;;;;;;;45.25;39.50;;;;;18.53;79.02;101693.69;5112973;27;45435;-72
2023/07/17 01:24:09;;;;;;;;;45.25;39.50;;;;;18.66;78.32;101707.13;5105834;27;45349;-72
2023/07/17 01:26:34;;;;;;;;;49.25;42.00;;;;;18.63;79.47;101708.22;5111604;27;45383;-72
2023/07/17 01:29:00;;;;;;;;;51.75;42.75;;;;;18.59;80.14;101706.69;5113593;27;45239;-72
2023/07/17 01:31:25;;;;;;;;;50.50;43.25;;;;;18.54;79.16;101705.28;5101714;27;45315;-72
2023/07/17 01:33:51;;;;;;;;;47.75;41.00;;;;;18.53;80.23;101703.56;5106231;27;45298;-72
2023/07/17 01:36:16;;;;;;;;;47.50;40.75;;;;;18.48;80.58;101709.19;5104002;27;45328;-72
2023/07/17 01:38:42;;;;;;;;;46.67;39.67;;;;;18.45;80.84;101704.06;5112519;27;45305;-72
2023/07/17 01:41:07;;;;;;;;;43.67;38.00;;;;;18.33;81.21;101693.25;5107060;27;45428;-72
2023/07/17 01:43:33;;;;;;;;;43.00;38.00;;;;;18.31;81.71;101705.91;5105601;27;46186;-72
2023/07/17 01:45:58;;;;;;;;;44.67;38.67;;;;;18.28;81.67;101704.28;5114396;27;45431;-72
2023/07/17 01:48:23;;;;;;;;;47.67;40.33;;;;;18.23;82.44;101709.06;5087446;27;45311;-72
2023/07/17 01:50:49;;;;;;;;;40.67;35.33;;;;;18.16;82.61;101699.69;5107094;27;45301;-72
2023/07/17 01:53:18;;;;;;;;;43.00;37.67;;;;;18.12;82.39;101703.56;5115694;27;45318;-72
2023/07/17 01:55:43;;;;;;;;;45.33;39.00;;;;;18.02;83.07;101692.56;5114203;27;45790;-72
2023/07/17 01:58:09;;;;;;;;;48.67;41.00;;;;;18.03;82.85;101704.16;5105968;27;45259;-72
2023/07/17 02:00:35;;;;;;;;;44.67;39.00;;;;;17.98;82.27;101698.22;5113104;27;45419;-72
2023/07/17 02:03:00;;;;;;;;;35.25;33.00;;;;;17.95;83.29;101701.09;5119776;27;45567;-72
2023/07/17 02:05:26;;;;;;;;;40.33;36.33;;;;;17.90;83.32;101701.38;5101414;27;45396;-72
2023/07/17 02:07:51;;;;;;;;;45.00;38.33;;;;;17.88;83.04;101713.13;5109834;27;45584;-72
2023/07/17 02:10:17;;;;;;;;;45.33;37.67;;;;;17.73;82.62;101690.88;5107612;27;45231;-72
2023/07/17 02:12:42;;;;;;;;;35.50;33.25;;;;;17.80;84.27;101710.94;5106380;27;46231;-72
2023/07/17 02:15:11;;;;;;;;;43.00;37.67;;;;;17.77;84.20;101711.13;5108354;27;45316;-72
2023/07/17 02:17:36;;;;;;;;;39.00;34.75;;;;;17.76;84.27;101716.59;5117913;27;45427;-72
2023/07/17 02:20:05;;;;;;;;;34.50;31.00;;;;;17.73;84.15;101712.28;5107297;27;45270;-72
2023/07/17 02:22:31;;;;;;;;;31.75;30.75;;;;;17.73;83.16;101714.97;5109003;27;45439;-72
2023/07/17 02:24:57;;;;;;;;;32.00;30.25;;;;;17.74;83.21;101721.16;5103799;27;45289;-72
2023/07/17 02:27:23;;;;;;;;;36.00;33.33;;;;;17.69;83.25;101705.41;5112366;27;45682;-72
2023/07/17 02:29:48;;;;;;;;;35.00;32.50;;;;;17.68;82.38;101701.00;5105059;27;45249;-72
2023/07/17 02:32:14;;;;;;;;;36.25;33.75;;;;;17.73;82.54;101719.47;5103753;27;46019;-72
2023/07/17 02:34:39;;;;;;;;;37.00;33.75;;;;;17.76;82.99;101717.44;5111697;27;46554;-72
2023/07/17 02:37:10;;;;;;;;;44.67;39.00;;;;;17.70;82.20;101709.81;5104569;27;45826;-71
2023/07/17 02:39:35;;;;;;;;;41.00;36.33;;;;;17.74;82.37;101711.31;5092876;27;45374;-72
2023/07/17 02:42:00;;;;;;;;;41.00;36.33;;;;;17.74;82.64;101719.34;5111041;27;45304;-72
2023/07/17 02:44:26;;;;;;;;;39.33;34.67;;;;;17.71;83.09;101719.53;5117684;27;45552;-72
2023/07/17 02:46:51;;;;;;;;;38.50;34.50;;;;;17.67;83.09;101726.03;5113391;27;45596;-72
2023/07/17 02:49:16;;;;;;;;;24.25;23.25;;;;;17.64;83.45;101727.09;5103175;27;45389;-72
2023/07/17 02:51:42;;;;;;;;;34.50;31.75;;;;;17.38;83.38;101686.81;5104707;27;45391;-72
2023/07/17 02:54:07;;;;;;;;;24.50;24.50;;;;;17.57;83.95;101719.56;5095867;27;45353;-72
2023/07/17 02:56:32;;;;;;;;;40.50;35.00;;;;;17.56;83.34;101739.22;5100789;27;45399;-72
2023/07/17 02:58:58;;;;;;;;;21.00;21.00;;;;;17.53;84.46;101726.00;5113244;27;45452;-72
2023/07/17 03:01:23;;;;;;;;;27.25;26.50;;;;;17.52;84.29;101732.28;5109218;27;46114;-72
2023/07/17 03:03:48;;;;;;;;;26.75;26.50;;;;;17.47;84.38;101729.06;5113051;27;45404;-72
2023/07/17 03:06:14;;;;;;;;;22.75;22.00;;;;;17.28;85.04;101702.56;5100254;27;45240;-72
2023/07/17 03:08:40;;;;;;;;;27.00;27.00;;;;;17.24;84.82;101702.84;5101411;27;45185;-72
2023/07/17 03:11:06;;;;;;;;;31.75;29.00;;;;;17.31;85.46;101728.28;5098775;27;47311;-71
2023/07/17 03:13:31;;;;;;;;;28.50;28.00;;;;;17.31;86.08;101729.09;5110281;27;45290;-72
2023/07/17 03:15:58;;;;;;;;;22.75;21.00;;;;;17.31;86.30;101738.97;5102346;27;45335;-71
2023/07/17 03:18:25;;;;;;;;;25.25;24.75;;;;;17.26;85.84;101735.69;5108855;27;45451;-71
2023/07/17 03:20:51;;;;;;;;;29.75;29.75;;;;;17.22;86.26;101732.34;5109976;27;46212;-72
2023/07/17 03:23:16;;;;;;;;;27.00;27.00;;;;;17.19;86.55;101736.06;5093674;27;45307;-72
2023/07/17 03:25:42;;;;;;;;;25.75;25.75;;;;;17.09;86.48;101729.53;5106580;27;45286;-72
2023/07/17 03:28:07;;;;;;;;;29.50;29.50;;;;;17.11;87.43;101745.50;5118580;27;45289;-72
2023/07/17 03:30:32;;;;;;;;;31.25;29.50;;;;;17.07;87.77;101743.97;5111233;27;45424;-72
2023/07/17 03:32:58;;;;;;;;;24.75;23.75;;;;;16.97;87.20;101734.75;5107149;27;45349;-72
2023/07/17 03:35:23;;;;;;;;;20.50;20.50;;;;;16.94;85.26;101730.47;5108136;27;45301;-72
2023/07/17 03:37:48;;;;;;;;;19.25;19.25;;;;;17.04;85.04;101749.50;5112300;27;45470;-72
2023/07/17 03:40:14;;;;;;;;;23.25;23.25;;;;;17.04;85.48;101755.69;5104384;27;46070;-72
2023/07/17 03:42:39;;;;;;;;;28.25;27.25;;;;;17.10;83.31;101757.13;5107792;27;45439;-72
2023/07/17 03:45:05;;;;;;;;;27.00;27.00;;;;;17.01;82.53;101744.31;5104416;27;45164;-72
2023/07/17 03:47:31;;;;;;;;;21.75;21.00;;;;;17.14;82.98;101762.22;5115696;27;45357;-72
2023/07/17 03:49:56;;;;;;;;;32.50;30.50;;;;;16.98;82.63;101736.50;5108011;27;45388;-72
2023/07/17 03:52:22;;;;;;;;;25.50;24.75;;;;;17.07;82.03;101750.16;5103484;27;45802;-72
2023/07/17 03:54:47;;;;;;;;;34.00;32.25;;;;;17.13;80.68;101763.16;5095540;27;45247;-72
2023/07/17 03:57:13;;;;;;;;;28.50;28.00;;;;;17.18;82.03;101770.91;5102461;27;45546;-72
2023/07/17 03:59:54;;;;;;;;;36.75;33.25;;;;;17.17;81.37;101767.38;5108826;27;46068;-72
2023/07/17 04:02:21;;;;;;;;;26.50;26.50;;;;;17.15;82.86;101763.06;5104393;27;45268;-72
2023/07/17 04:04:46;;;;;;;;;25.00;24.50;;;;;17.18;82.30;101765.56;5111381;27;45248;-72
2023/07/17 04:07:12;;;;;;;;;34.50;32.50;;;;;17.20;81.75;101774.34;5092097;27;45484;-72
2023/07/17 04:09:38;;;;;;;;;21.75;21.75;;;;;17.14;83.21;101766.72;5111425;27;46357;-72
2023/07/17 04:12:04;;;;;;;;;20.50;20.50;;;;;17.19;82.89;101772.63;5104829;27;45256;-72
2023/07/17 04:14:31;;;;;;;;;35.00;32.75;;;;;17.18;82.45;101773.56;5103010;27;45734;-72
2023/07/17 04:16:56;;;;;;;;;36.75;33.00;;;;;17.16;80.43;101772.81;5115246;27;46633;-72
2023/07/17 04:19:22;;;;;;;;;27.50;27.25;;;;;17.05;82.14;101762.75;5103464;27;46161;-72
2023/07/17 04:21:47;;;;;;;;;34.00;32.00;;;;;17.13;80.45;101786.34;5104669;27;45364;-72
2023/07/17 04:24:12;;;;;;;;;38.50;33.25;;;;;17.14;80.87;101774.72;5106179;27;45334;-72
2023/07/17 04:26:38;;;;;;;;;41.67;36.00;;;;;17.16;80.14;101781.69;5098573;27;45557;-72
2023/07/17 04:29:03;;;;;;;;;31.00;29.50;;;;;17.13;81.08;101779.22;5106106;27;46605;-72
2023/07/17 04:31:28;;;;;;;;;33.50;32.00;;;;;17.18;80.38;101782.44;5116302;27;45497;-72
2023/07/17 04:33:54;;;;;;;;;40.33;36.33;;;;;17.21;79.64;101781.44;5103391;27;45555;-72
2023/07/17 04:36:19;;;;;;;;;44.33;38.33;;;;;17.21;79.91;101781.44;5091423;27;45415;-72
2023/07/17 04:38:45;;;;;;;;;32.75;31.25;;;;;17.24;80.13;101786.59;5105163;27;46360;-72
2023/07/17 04:41:10;;;;;;;;;34.67;32.67;;;;;17.15;80.20;101771.94;5104025;27;45265;-72
2023/07/17 04:43:35;;;;;;;;;36.75;34.00;;;;;17.26;79.52;101792.72;5102820;27;45275;-73
2023/07/17 04:46:01;;;;;;;;;39.50;35.50;;;;;17.17;79.33;101771.88;5115947;27;45264;-72
2023/07/17 04:48:26;;;;;;;;;40.00;35.67;;;;;17.16;80.11;101773.69;5107241;27;45313;-72
2023/07/17 04:50:53;;;;;;;;;45.75;38.75;;;;;17.27;79.19;101796.25;5112454;27;45679;-72
2023/07/17 04:53:19;;;;;;;;;41.00;36.33;;;;;17.33;79.46;101799.41;5107972;27;45587;-72
2023/07/17 04:55:44;;;;;;;;;34.50;31.75;;;;;17.34;80.87;101792.25;5094572;27;45296;-72
2023/07/17 04:58:09;;;;;;;;;33.25;31.00;;;;;17.40;81.17;101795.44;5114495;27;45446;-72
2023/07/17 05:00:35;;;;;;;;;28.00;26.50;;;;;17.41;80.17;101797.13;5097858;27;45306;-72
2023/07/17 05:03:00;;;;;;;;;42.00;37.00;;;;;17.48;80.35;101801.16;5108010;27;45419;-72
2023/07/17 05:05:26;;;;;;;;;27.50;26.00;;;;;17.48;79.90;101800.31;5090919;27;45906;-72
2023/07/17 05:07:51;;;;;;;;;35.00;32.75;;;;;17.54;80.36;101808.81;5111890;27;46062;-73
2023/07/17 05:10:18;;;;;;;;;24.75;23.00;;;;;17.61;81.17;101812.88;5102888;27;45301;-73
2023/07/17 05:12:43;;;;;;;;;34.75;32.50;;;;;17.60;79.01;101803.13;5101624;27;45400;-73
2023/07/17 05:15:09;;;;;;;;;39.33;34.33;;;;;17.62;78.27;101797.69;5101244;27;45393;-73
2023/07/17 05:17:35;;;;;;;;;44.67;39.00;;;;;17.70;77.54;101808.81;5120682;27;45549;-73
2023/07/17 05:20:04;;;;;;;;;41.33;36.33;;;;;17.66;77.60;101793.88;5102169;27;45219;-73
2023/07/17 05:22:29;;;;;;;;;40.00;35.67;;;;;17.70;78.94;101792.75;5115006;27;45408;-73
2023/07/17 05:24:55;;;;;;;;;42.67;37.33;;;;;17.80;78.23;101812.63;5104115;27;45345;-73
2023/07/17 05:27:20;;;;;;;;;36.50;33.50;;;;;17.93;77.92;101816.25;5120784;27;46042;-73
2023/07/17 05:29:46;;;;;;;;;41.67;36.33;;;;;17.99;77.37;101812.38;5110777;27;45587;-72
2023/07/17 05:32:12;;;;;;;;;34.50;32.75;;;;;18.04;78.91;101820.97;5105655;27;45821;-73
2023/07/17 05:34:37;;;;;;;;;48.50;40.75;;;;;18.08;76.23;101812.66;5107387;27;45541;-73
2023/07/17 05:37:03;;;;;;;;;38.33;33.67;;;;;18.07;76.04;101812.75;5104725;27;46223;-73
2023/07/17 05:39:29;;;;;;;;;42.25;36.75;;;;;18.11;75.40;101816.94;5091902;27;45285;-73
2023/07/17 05:41:54;;;;;;;;;48.75;40.50;;;;;18.15;75.08;101802.44;5113268;27;45341;-73
2023/07/17 05:44:19;;;;;;;;;50.00;42.33;;;;;18.26;74.94;101823.19;5103869;27;46347;-73
2023/07/17 05:46:45;;;;;;;;;49.75;42.75;;;;;18.20;75.27;101806.53;5107032;27;46417;-73
2023/07/17 05:49:10;;;;;;;;;35.00;32.50;;;;;18.36;74.68;101821.63;5110914;27;45412;-73
2023/07/17 05:51:36;;;;;;;;;43.00;37.67;;;;;18.41;75.21;101822.19;5113159;27;45380;-74
2023/07/17 05:54:01;;;;;;;;;46.50;40.25;;;;;18.50;74.53;101835.03;5112524;27;45271;-73
2023/07/17 05:56:26;;;;;;;;;47.25;40.75;;;;;18.54;74.00;101832.06;5115742;27;45901;-73
2023/07/17 05:58:52;;;;;;;;;39.25;35.25;;;;;18.65;75.92;101834.06;5110005;27;45378;-73
2023/07/17 06:01:17;;;;;;;;;60.75;50.25;;;;;18.69;73.72;101839.13;5105847;27;45464;-73
2023/07/17 06:03:42;;;;;;;;;50.67;43.33;;;;;18.70;73.41;101837.31;5113867;27;45598;-73
2023/07/17 06:06:08;;;;;;;;;54.25;45.75;;;;;18.52;73.07;101796.47;5114935;27;45289;-73
2023/07/17 06:08:33;;;;;;;;;54.00;45.50;;;;;18.82;72.70;101841.00;5111010;27;45247;-73
2023/07/17 06:10:59;;;;;;;;;51.25;43.50;;;;;18.90;74.02;101854.78;5113581;27;46232;-73
2023/07/17 06:13:24;;;;;;;;;48.25;41.00;;;;;18.94;72.02;101861.66;5115422;27;45420;-74
2023/07/17 06:15:49;;;;;;;;;53.25;44.75;;;;;18.96;72.03;101857.03;5102367;27;45248;-74
2023/07/17 06:18:15;;;;;;;;;54.25;45.75;;;;;18.97;72.93;101856.09;5101278;27;45290;-74
2023/07/17 06:20:40;;;;;;;;;56.00;47.00;;;;;19.00;72.52;101848.72;5091095;27;45448;-74
2023/07/17 06:23:05;;;;;;;;;53.25;44.25;;;;;19.17;73.95;101858.34;5113392;27;45366;-74
2023/07/17 06:25:31;;;;;;;;;48.67;40.67;;;;;19.24;72.05;101870.34;5113130;27;46442;-74
2023/07/17 06:27:56;;;;;;;;;45.50;39.75;;;;;19.21;73.92;101852.66;5102420;27;45604;-74
2023/07/17 06:30:21;;;;;;;;;50.00;43.00;;;;;19.35;71.30;101866.97;5097786;27;45289;-74
2023/07/17 06:32:47;;;;;;;;;44.00;38.33;;;;;19.42;72.30;101868.31;5103513;27;45490;-74
2023/07/17 06:35:12;;;;;;;;;52.33;44.00;;;;;19.46;73.02;101868.00;5100447;27;47257;-74
2023/07/17 06:37:38;;;;;;;;;44.00;39.00;;;;;19.51;73.91;101870.38;5101833;27;45450;-74
2023/07/17 06:40:04;;;;;;;;;32.25;31.00;;;;;19.41;69.95;101853.16;5117217;27;45252;-74
2023/07/17 06:42:30;;;;;;;;;36.67;34.67;;;;;19.48;69.91;101857.16;5118463;27;45471;-73
2023/07/17 06:44:56;;;;;;;;;49.00;40.33;;;;;19.64;69.98;101861.38;5099658;27;47073;-74
2023/07/17 06:47:21;;;;;;;;;34.25;31.50;;;;;19.75;70.54;101871.41;5112799;27;45268;-74
2023/07/17 06:49:46;;;;;;;;;19.00;16.75;;;;;19.72;68.91;101858.19;5109631;27;45398;-74
2023/07/17 06:52:12;;;;;;;;;38.67;35.33;;;;;19.76;69.43;101868.59;5104993;27;45752;-74
2023/07/17 06:54:37;;;;;;;;;58.00;48.33;;;;;19.88;68.08;101879.47;5100655;27;45799;-74
2023/07/17 06:57:03;;;;;;;;;48.33;40.67;;;;;19.94;68.11;101876.34;5105200;27;45279;-74
2023/07/17 06:59:28;;;;;;;;;56.67;47.67;;;;;20.02;66.73;101876.69;5100166;27;45581;-74
2023/07/17 07:01:54;;;;;;;;;62.25;49.00;;;;;20.06;66.82;101870.13;5111830;27;45471;-74
2023/07/17 07:04:20;;;;;;;;;55.00;46.33;;;;;20.13;67.37;101877.66;5083215;27;46960;-74
2023/07/17 07:06:45;;;;;;;;;55.25;46.75;;;;;20.29;66.52;101882.00;5111467;27;45447;-74
2023/07/17 07:09:11;;;;;;;;;57.33;48.33;;;;;20.33;66.18;101868.22;5114325;27;45551;-74
2023/07/17 07:11:36;;;;;;;;;15.50;14.00;;;;;20.40;66.00;101876.72;5110991;27;45318;-74
2023/07/17 07:14:02;;;;;;;;;48.00;38.75;;;;;20.45;64.58;101886.16;5104120;27;45399;-75
2023/07/17 07:16:28;;;;;;;;;21.25;21.25;;;;;20.53;65.00;101894.53;5090986;27;45232;-74
2023/07/17 07:18:53;;;;;;;;;50.50;43.00;;;;;20.54;64.46;101879.28;5113453;27;45431;-75
2023/07/17 07:21:18;;;;;;;;;45.00;39.33;;;;;20.59;63.89;101890.53;5110975;27;45355;-74
2023/07/17 07:23:44;;;;;;;;;60.33;50.00;;;;;20.57;62.93;101881.75;5117172;27;46159;-75
2023/07/17 07:26:10;;;;;;;;;37.00;34.33;;;;;20.63;63.52;101895.59;5087979;27;45389;-74
2023/07/17 07:28:35;;;;;;;;;30.00;28.33;;;;;20.66;63.69;101898.06;5112665;27;45384;-74
2023/07/17 07:31:02;;;;;;;;;27.67;27.00;;;;;20.63;63.46;101873.22;5100757;27;45412;-74
2023/07/17 07:33:27;;;;;;;;;38.00;33.25;;;;;20.78;63.06;101890.94;5102852;27;45523;-74
2023/07/17 07:35:53;;;;;;;;;24.75;23.50;;;;;20.92;64.16;101893.47;5106979;27;45176;-74
2023/07/17 07:38:18;;;;;;;;;27.67;27.67;;;;;21.01;63.21;101887.44;5116345;27;45362;-74
2023/07/17 07:40:44;;;;;;;;;28.50;25.25;;;;;21.08;60.77;101899.47;5105318;27;45208;-74
2023/07/17 07:43:09;;;;;;;;;21.25;18.75;;;;;21.20;60.90;101897.75;5105549;27;46502;-74
2023/07/17 07:45:35;;;;;;;;;27.00;27.00;;;;;21.25;59.55;101895.56;5107794;27;45345;-74
2023/07/17 07:48:01;;;;;;;;;22.25;22.25;;;;;21.35;61.74;101903.78;5107018;27;45645;-74
2023/07/17 07:50:26;;;;;;;;;24.75;24.75;;;;;21.56;61.90;101902.19;5108323;27;46107;-74
2023/07/17 07:52:52;;;;;;;;;22.25;19.00;;;;;21.73;60.49;101897.22;5115499;27;46160;-73
2023/07/17 07:55:18;;;;;;;;;49.75;43.25;;;;;21.93;58.68;101897.56;5108068;27;45468;-74
2023/07/17 07:57:43;;;;;;;;;35.67;33.67;;;;;22.11;57.37;101896.16;5105473;27;45294;-74
2023/07/17 08:00:09;;;;;;;;;32.75;31.50;;;;;22.13;57.70;101888.78;5098540;27;45626;-74
2023/07/17 08:02:34;;;;;;;;;39.33;30.67;;;;;22.27;56.50;101889.44;5120038;27;45280;-74
2023/07/17 08:05:00;;;;;;;;;38.00;31.67;;;;;22.40;55.37;101908.19;5117601;27;45470;-73
2023/07/17 08:07:25;;;;;;;;;26.00;26.00;;;;;22.38;54.24;101912.84;5118241;27;45258;-74
2023/07/17 08:09:51;;;;;;;;;40.33;35.00;;;;;22.43;52.82;101899.00;5113682;27;45428;-74
2023/07/17 08:12:16;;;;;;;;;144.00;144.00;;;;;22.45;53.62;101884.41;5118334;27;45663;-74
2023/07/17 08:14:41;;;;;;;;;38.33;32.33;;;;;22.71;54.60;101912.88;5123723;27;45237;-74
2023/07/17 08:17:07;;;;;;;;;253.00;253.00;;;;;22.84;51.97;101915.44;5108513;27;45178;-74
2023/07/17 08:19:32;;;;;;;;;152.67;151.00;;;;;22.88;52.79;101919.59;5097680;27;45360;-74
2023/07/17 08:21:57;;;;;;;;;152.33;150.67;;;;;22.88;52.58;101922.31;5109256;27;45490;-74
2023/07/17 08:24:23;;;;;;;;;121.00;120.25;;;;;22.92;52.12;101926.47;5115346;27;45174;-73
2023/07/17 08:26:48;;;;;;;;;126.00;120.75;;;;;22.93;50.52;101925.50;5114032;27;45217;-73
2023/07/17 08:29:13;;;;;;;;;119.25;119.25;;;;;22.94;51.09;101919.09;5119595;27;45424;-74
2023/07/17 08:31:40;;;;;;;;;139.00;139.00;;;;;22.75;50.63;101927.84;5108940;27;45487;-73
2023/07/17 08:34:05;;;;;;;;;115.20;108.40;;;;;22.84;50.98;101910.91;5107859;27;45406;-73
2023/07/17 08:36:31;;;;;;;;;31.50;30.25;;;;;22.94;51.99;101907.47;5121318;27;45360;-73
2023/07/17 08:38:57;;;;;;;;;52.25;43.25;;;;;23.05;51.22;101916.41;5115765;27;45284;-73
2023/07/17 08:41:22;;;;;;;;;54.50;45.75;;;;;23.02;50.82;101913.94;5102377;27;46686;-73
2023/07/17 08:43:48;;;;;;;;;32.33;31.00;;;;;23.34;53.09;101917.56;5099967;27;45415;-73
2023/07/17 08:46:14;;;;;;;;;36.00;32.00;;;;;23.47;49.43;101914.72;5101134;27;45296;-73
2023/07/17 08:48:43;;;;;;;;;52.67;44.33;;;;;23.36;51.28;101910.16;5102039;27;45326;-73
2023/07/17 08:51:12;;;;;;;;;46.00;39.75;;;;;23.35;50.61;101915.72;5111142;27;46147;-73
2023/07/17 08:53:43;;;;;;;;;60.60;50.80;;;;;23.48;49.74;101921.84;5109889;27;45340;-73
2023/07/17 08:56:11;;;;;;;;;118.00;112.00;;;;;23.73;50.22;101923.31;5107723;27;45629;-73
2023/07/17 08:58:37;;;;;;;;;56.33;47.67;;;;;23.94;50.14;101909.84;5114722;27;45434;-73
2023/07/17 09:01:04;;;;;;;;;73.25;62.00;;;;;24.08;46.95;101920.34;5101532;27;48466;-73
2023/07/17 09:03:32;;;;;;;;;98.80;93.60;;;;;24.12;47.07;101919.94;5113045;27;45440;-73
2023/07/17 09:05:58;;;;;;;;;60.33;51.00;;;;;24.03;48.76;101882.00;5101586;27;45453;-74
2023/07/17 09:08:23;;;;;;;;;77.00;68.40;;;;;24.29;47.56;101913.94;5109943;27;45475;-73
2023/07/17 09:11:03;;;;;;;;;77.33;70.33;;;;;24.56;47.42;101917.91;5125877;27;45337;-73
2023/07/17 09:13:36;;;;;;;;;77.25;70.00;;;;;24.75;45.71;101915.28;5113613;27;45317;-73
2023/07/17 09:16:20;;;;;;;;;76.00;67.00;;;;;24.86;46.63;101913.38;5114595;27;45370;-73
2023/07/17 09:18:47;;;;;;;;;203.00;109.75;;;;;24.90;44.50;101913.97;5109888;27;45386;-73
2023/07/17 09:21:18;;;;;;;;;99.50;93.75;;;;;24.91;46.90;101918.38;5116225;27;46283;-73
2023/07/17 09:23:54;;;;;;;;;127.80;107.80;;;;;24.87;46.42;101916.91;5102527;27;45314;-73
2023/07/17 09:26:24;;;;;;;;;260.60;60.00;;;;;24.78;45.64;101915.00;5111687;27;45507;-72
2023/07/17 09:28:51;;;;;;;;;287.20;70.80;;;;;24.70;44.83;101923.84;5111055;27;45245;-73
2023/07/17 09:31:27;;;;;;;;;238.80;65.00;;;;;24.68;45.50;101927.66;5109386;27;45272;-73
2023/07/17 09:33:53;;;;;;;;;133.40;27.00;;;;;24.61;43.88;101911.09;5107274;27;45293;-73
2023/07/17 09:36:20;;;;;;;;;232.80;46.00;;;;;24.67;45.32;101931.38;5093250;27;45359;-72
2023/07/17 09:38:50;;;;;;;;;207.00;51.00;;;;;24.68;44.90;101924.94;5098957;27;45767;-73
2023/07/17 09:41:23;;;;;;;;;212.20;58.80;;;;;24.72;45.95;101908.31;5086934;27;47625;-73
2023/07/17 09:43:59;;;;;;;;;154.50;35.50;;;;;24.87;45.12;101925.03;5086996;27;45413;-72
2023/07/17 09:46:29;;;;;;;;;78.67;11.67;;;;;24.96;44.99;101924.25;5115284;27;45799;-73
2023/07/17 09:48:55;;;;;;;;;273.80;61.60;;;;;25.05;44.75;101920.69;5109198;27;45500;-72
2023/07/17 09:51:21;;;;;;;;;0.00;0.00;;;;;24.98;43.96;101907.84;5101680;27;47503;-72
2023/07/17 09:53:47;;;;;;;;;7.00;0.00;;;;;25.16;43.31;101928.69;5115140;27;45409;-73
2023/07/17 09:56:16;;;;;;;;;1.00;0.00;;;;;25.08;43.81;101924.97;5094962;27;45311;-72
2023/07/17 09:58:50;;;;;;;;;245.00;49.80;;;;;25.19;45.10;101914.91;5113184;27;45485;-72
2023/07/17 10:01:18;;;;;;;;;45.33;3.67;;;;;25.13;44.40;101918.13;5096691;27;47079;-72
2023/07/17 10:03:47;;;;;;;;;64.67;6.67;;;;;25.16;43.49;101925.97;5098402;27;45498;-72
2023/07/17 10:06:15;;;;;;;;;0.00;0.00;;;;;25.25;43.09;101925.16;5105407;27;45345;-73
2023/07/17 10:08:44;;;;;;;;;3520.33;3520.33;;;;;25.17;41.59;101922.28;5110659;27;45308;-73
2023/07/17 10:11:09;;;;;;;;;3532.33;3532.33;;;;;25.26;44.08;101921.44;5104757;27;45432;-72
2023/07/17 10:13:35;;;;;;;;;3530.00;3530.00;;;;;25.44;41.06;101926.19;5107338;27;45459;-73
2023/07/17 10:16:01;;;;;;;;;3550.00;3550.00;;;;;25.58;42.57;101923.09;5102381;27;45459;-73
2023/07/17 10:18:26;;;;;;;;;3530.00;3530.00;;;;;25.75;42.99;101922.38;5088679;27;45475;-73
2023/07/17 10:20:53;;;;;;;;;3520.75;3520.75;;;;;25.95;43.58;101915.94;5104576;27;45470;-73
2023/07/17 10:23:27;;;;;;;;;3513.00;3513.00;;;;;26.04;40.19;101914.22;5115097;27;45309;-73
2023/07/17 10:26:06;;;;;;;;;3526.00;3526.00;;;;;25.88;39.15;101909.41;5114667;27;45417;-73
2023/07/17 10:28:33;;;;;;;;;3539.33;3539.33;;;;;25.98;41.01;101923.75;5110704;27;45452;-72
2023/07/17 10:31:16;;;;;;;;;3532.67;3532.67;;;;;25.78;39.19;101922.09;5117162;27;45422;-73
2023/07/17 10:33:48;;;;;;;;;3530.00;3530.00;;;;;25.74;39.97;101917.97;5109824;27;46216;-73
2023/07/17 10:36:13;;;;;;;;;3520.67;3520.67;;;;;26.07;42.35;101911.22;5085404;27;45420;-73
2023/07/17 10:38:39;;;;;;;;;3518.00;3518.00;;;;;26.39;41.74;101909.88;5088579;27;45472;-73
2023/07/17 10:41:11;;;;;;;;;3538.00;3538.00;;;;;26.65;39.25;101901.91;5103331;27;46143;-73
2023/07/17 10:43:37;;;;;;;;;3525.33;3525.33;;;;;26.94;41.09;101904.50;5108710;27;45501;-73
2023/07/17 10:46:10;;;;;;;;;3492.75;3492.75;;;;;27.20;38.52;101904.63;5101977;27;45317;-73
2023/07/17 10:48:35;;;;;;;;;3495.25;3495.25;;;;;27.11;38.18;101916.44;5100906;27;45465;-73
2023/07/17 10:51:01;;;;;;;;;3510.33;3510.33;;;;;27.29;40.14;101906.47;5099012;27;46961;-73
2023/07/17 10:53:26;;;;;;;;;3495.25;3495.25;;;;;27.37;39.55;101917.41;5097504;27;45432;-73
2023/07/17 10:55:53;;;;;;;;;3398.00;3395.00;;;;;27.27;37.74;101916.59;5114630;27;45250;-73
2023/07/17 10:58:20;;;;;;;;;3486.00;3486.00;;;;;27.09;38.52;101924.75;5110193;27;45395;-73
2023/07/17 11:00:47;;;;;;;;;3508.25;3508.25;;;;;27.05;39.01;101922.47;5108748;27;47244;-73
2023/07/17 11:03:14;;;;;;;;;3482.60;3482.60;;;;;27.04;37.48;101899.03;5098536;27;45382;-73